createdAt,value
2019-04-14T00:01:04.353Z,4.40
2019-04-14T00:06:07.043Z,4.40
2019-04-14T00:11:08.774Z,4.50
2019-04-14T00:16:10.246Z,4.50
2019-04-14T00:21:12.864Z,4.50
2019-04-14T00:26:31.499Z,4.50
2019-04-14T00:31:33.271Z,4.40
2019-04-14T00:36:42.390Z,4.30
2019-04-14T00:41:51.947Z,4.30
2019-04-14T00:46:51.714Z,4.30
2019-04-14T00:51:54.878Z,4.30
2019-04-14T00:56:56.719Z,4.20
2019-04-14T01:01:59.154Z,4.20
2019-04-14T01:07:00.763Z,4.10
2019-04-14T01:12:02.233Z,4.00
2019-04-14T01:17:04.792Z,4.00
2019-04-14T01:22:07.422Z,3.80
2019-04-14T01:27:10.218Z,3.80
2019-04-14T01:32:13.227Z,3.70
2019-04-14T01:37:15.863Z,3.60
2019-04-14T01:42:18.071Z,3.50
2019-04-14T01:47:20.511Z,3.60
2019-04-14T01:52:34.186Z,3.60
2019-04-14T01:57:54.631Z,3.60
2019-04-14T02:02:57.408Z,3.50
2019-04-14T02:08:00.130Z,3.40
2019-04-14T02:13:02.820Z,3.30
2019-04-14T02:18:05.634Z,3.40
2019-04-14T02:23:08.286Z,3.50
2019-04-14T02:28:11.143Z,3.30
2019-04-14T02:33:54.038Z,3.30
2019-04-14T02:38:52.636Z,3.20
2019-04-14T02:43:48.223Z,3.30
2019-04-14T02:48:52.555Z,3.40
2019-04-14T03:03:56.421Z,3.10
2019-04-14T03:09:16.980Z,3.00
2019-04-14T03:14:11.703Z,3.10
2019-04-14T03:19:16.542Z,3.10
2019-04-14T03:24:30.834Z,3.00
2019-04-14T03:29:32.446Z,2.90
2019-04-14T03:35:03.622Z,3.00
2019-04-14T03:44:44.360Z,2.90
2019-04-14T03:49:45.519Z,3.00
2019-04-14T03:54:42.676Z,3.00
2019-04-14T03:59:24.046Z,2.80
2019-04-14T04:04:27.344Z,3.00
2019-04-14T04:09:41.105Z,2.90
2019-04-14T04:14:42.794Z,2.80
2019-04-14T04:19:51.849Z,2.80
2019-04-14T04:24:54.313Z,3.00
2019-04-14T04:29:59.202Z,3.00
2019-04-14T04:35:02.642Z,3.00
2019-04-14T04:40:07.552Z,3.00
2019-04-14T04:45:10.295Z,3.10
2019-04-14T04:50:12.910Z,3.10
2019-04-14T04:55:15.520Z,3.10
2019-04-14T05:00:17.890Z,3.10
2019-04-14T05:06:02.674Z,3.10
2019-04-14T05:11:23.081Z,3.20
2019-04-14T05:16:25.947Z,3.20
2019-04-14T05:21:27.787Z,3.30
2019-04-14T05:26:29.382Z,3.20
2019-04-14T05:31:32.071Z,3.30
2019-04-14T05:36:34.619Z,3.30
2019-04-14T05:41:37.500Z,3.20
2019-04-14T05:46:40.264Z,3.00
2019-04-14T05:51:41.928Z,3.00
2019-04-14T05:56:44.671Z,3.10
2019-04-14T06:01:46.511Z,3.00
2019-04-14T06:06:48.187Z,3.20
2019-04-14T06:11:49.799Z,3.20
2019-04-14T06:16:51.269Z,3.30
2019-04-14T06:21:53.431Z,3.30
2019-04-14T06:26:55.348Z,3.20
2019-04-14T06:31:57.104Z,3.40
2019-04-14T06:37:13.813Z,3.40
2019-04-14T06:42:15.533Z,3.60
2019-04-14T06:47:17.234Z,3.60
2019-04-14T06:52:19.020Z,3.60
2019-04-14T06:57:20.489Z,3.60
2019-04-14T07:02:21.983Z,3.60
2019-04-14T07:07:23.454Z,3.60
2019-04-14T07:12:24.927Z,3.70
2019-04-14T07:17:26.411Z,3.80
2019-04-14T07:22:27.864Z,3.90
2019-04-14T07:27:29.398Z,4.20
2019-04-14T07:32:33.545Z,4.20
2019-04-14T07:37:53.650Z,4.30
2019-04-14T07:42:59.784Z,4.30
2019-04-14T07:48:03.206Z,4.50
2019-04-14T07:53:21.606Z,4.40
2019-04-14T07:58:24.989Z,4.40
2019-04-14T08:03:26.461Z,4.50
2019-04-14T08:08:27.859Z,4.70
2019-04-14T08:13:29.710Z,4.60
2019-04-14T08:18:31.288Z,4.70
2019-04-14T08:23:32.867Z,4.70
2019-04-14T08:28:34.322Z,4.80
2019-04-14T08:33:35.795Z,4.90
2019-04-14T08:38:37.732Z,5.00
2019-04-14T08:43:48.528Z,5.00
2019-04-14T08:48:52.879Z,5.40
2019-04-14T08:53:57.239Z,5.50
2019-04-14T08:59:00.607Z,5.60
2019-04-14T09:04:02.078Z,5.60
2019-04-14T09:09:07.996Z,5.70
2019-04-14T09:14:09.537Z,5.70
2019-04-14T09:24:19.547Z,5.70
2019-04-14T09:29:21.002Z,5.80
2019-04-14T09:34:22.468Z,5.80
2019-04-14T09:39:24.307Z,5.90
2019-04-14T09:44:25.846Z,5.80
2019-04-14T09:49:27.316Z,5.90
2019-04-14T09:54:28.996Z,6.20
2019-04-14T09:59:30.455Z,6.20
2019-04-14T10:04:31.923Z,6.40
2019-04-14T10:09:33.400Z,6.20
2019-04-14T10:14:34.978Z,6.20
2019-04-14T10:19:36.454Z,6.20
2019-04-14T10:24:37.929Z,6.20
2019-04-14T10:29:39.403Z,6.10
2019-04-14T10:34:40.882Z,6.10
2019-04-14T10:39:42.369Z,6.30
2019-04-14T10:44:44.011Z,6.50
2019-04-14T10:49:45.500Z,6.50
2019-04-14T10:54:47.333Z,6.80
2019-04-14T10:59:48.891Z,6.90
2019-04-14T11:04:50.362Z,6.80
2019-04-14T11:09:53.925Z,7.00
2019-04-14T11:14:55.213Z,7.10
2019-04-14T11:19:57.115Z,7.20
2019-04-14T11:24:58.592Z,6.90
2019-04-14T11:30:00.063Z,7.20
2019-04-14T11:35:03.487Z,7.00
2019-04-14T11:40:06.806Z,7.20
2019-04-14T11:45:08.661Z,7.40
2019-04-14T11:50:12.348Z,7.70
2019-04-14T11:55:13.818Z,7.90
2019-04-14T12:00:20.388Z,8.10
2019-04-14T12:05:23.778Z,8.40
2019-04-14T12:10:25.241Z,8.50
2019-04-14T12:15:26.725Z,9.10
2019-04-14T12:20:28.173Z,9.00
2019-04-14T12:25:29.643Z,9.80
2019-04-14T12:30:31.349Z,10.00
2019-04-14T12:35:32.883Z,10.10
2019-04-14T12:40:34.485Z,10.10
2019-04-14T12:45:40.621Z,9.80
2019-04-14T12:50:46.779Z,9.90
2019-04-14T12:55:48.259Z,9.30
2019-04-14T13:00:51.640Z,9.50
2019-04-14T13:05:53.111Z,9.90
2019-04-14T13:10:54.667Z,9.90
2019-04-14T13:15:56.271Z,10.10
2019-04-14T13:20:57.742Z,10.20
2019-04-14T13:25:59.286Z,10.50
2019-04-14T13:31:00.851Z,10.10
2019-04-14T13:36:02.431Z,10.00
2019-04-14T13:41:04.052Z,10.10
2019-04-14T13:46:05.691Z,10.10
2019-04-14T13:51:07.649Z,10.00
2019-04-14T13:56:09.477Z,10.20
2019-04-14T14:01:11.478Z,10.40
2019-04-14T14:06:13.233Z,10.50
2019-04-14T14:11:19.412Z,10.70
2019-04-14T14:16:23.247Z,10.90
2019-04-14T14:21:29.290Z,10.80
2019-04-14T14:26:32.647Z,10.80
2019-04-14T14:31:34.494Z,10.70
2019-04-14T14:36:36.267Z,11.00
2019-04-14T14:41:37.850Z,11.70
2019-04-14T14:46:45.281Z,11.60
2019-04-14T14:51:51.667Z,11.60
2019-04-14T14:56:53.140Z,11.10
2019-04-14T15:01:54.616Z,11.20
2019-04-14T15:06:56.124Z,11.00
2019-04-14T15:11:57.912Z,10.80
2019-04-14T15:16:59.489Z,10.70
2019-04-14T15:22:00.887Z,10.70
2019-04-14T15:27:02.368Z,10.60
2019-04-14T15:32:03.838Z,10.60
2019-04-14T15:37:05.417Z,10.60
2019-04-14T15:42:07.056Z,10.50
2019-04-14T15:47:08.508Z,10.40
2019-04-14T15:52:10.261Z,10.40
2019-04-14T15:57:22.503Z,10.40
2019-04-14T16:02:43.032Z,10.40
2019-04-14T16:07:46.810Z,10.50
2019-04-14T16:13:02.546Z,10.40
2019-04-14T16:18:10.035Z,10.30
2019-04-14T16:23:11.500Z,10.30
2019-04-14T16:28:17.756Z,10.20
2019-04-14T16:33:24.122Z,10.20
2019-04-14T16:38:25.517Z,10.20
2019-04-14T16:43:27.159Z,10.10
2019-04-14T16:48:28.631Z,10.00
2019-04-14T16:53:32.054Z,9.90
2019-04-14T16:58:38.602Z,9.90
2019-04-14T17:03:40.071Z,9.80
2019-04-14T17:08:41.838Z,9.80
2019-04-14T17:13:45.219Z,9.70
2019-04-14T17:18:57.551Z,9.60
2019-04-14T17:24:16.232Z,9.50
2019-04-14T17:29:14.917Z,9.50
2019-04-14T17:34:19.421Z,9.40
2019-04-14T17:39:32.140Z,9.20
2019-04-14T17:44:52.288Z,9.20
2019-04-14T17:49:55.667Z,9.20
2019-04-14T17:55:01.663Z,9.10
2019-04-14T18:00:12.708Z,9.00
2019-04-14T18:05:16.081Z,8.90
2019-04-14T18:10:19.490Z,8.80
2019-04-14T18:15:31.686Z,8.70
2019-04-14T18:20:37.675Z,8.70
2019-04-14T18:25:39.152Z,8.60
2019-04-14T18:30:42.526Z,8.40
2019-04-14T18:35:58.049Z,8.40
2019-04-14T18:41:01.431Z,8.40
2019-04-14T18:46:04.868Z,8.10
2019-04-14T18:51:12.457Z,8.00
2019-04-14T18:56:28.157Z,8.00
2019-04-14T19:01:34.475Z,8.00
2019-04-14T19:06:35.928Z,7.80
2019-04-14T19:11:52.320Z,7.70
2019-04-14T19:16:59.079Z,7.60
2019-04-14T19:22:00.911Z,7.60
2019-04-14T19:27:02.771Z,7.60
2019-04-14T19:32:04.228Z,7.40
2019-04-14T19:37:05.739Z,7.30
2019-04-14T19:42:07.274Z,7.20
2019-04-14T19:47:08.758Z,7.20
2019-04-14T19:52:10.381Z,7.10
2019-04-14T19:57:11.866Z,7.00
2019-04-14T20:02:13.547Z,6.80
2019-04-14T20:07:15.132Z,6.80
2019-04-14T20:12:17.219Z,6.60
2019-04-14T20:17:27.183Z,6.50
2019-04-14T20:22:28.660Z,6.50
2019-04-14T20:27:32.032Z,6.40
2019-04-14T20:32:35.740Z,6.30
2019-04-14T20:37:37.224Z,6.30
2019-04-14T20:42:38.974Z,6.20
2019-04-14T20:47:40.423Z,6.20
2019-04-14T20:52:42.039Z,6.10
2019-04-14T20:57:43.540Z,6.00
2019-04-14T21:02:56.322Z,5.90
2019-04-14T21:07:57.816Z,5.80
2019-04-14T21:13:01.606Z,5.60
2019-04-14T21:18:21.703Z,5.60
2019-04-14T21:23:43.331Z,5.50
2019-04-14T21:29:01.726Z,5.40
2019-04-14T21:34:06.124Z,5.20
2019-04-14T21:39:18.878Z,5.10
2019-04-14T21:44:20.760Z,5.00
2019-04-14T21:49:22.218Z,4.90
2019-04-14T21:54:23.796Z,4.90
2019-04-14T21:59:32.958Z,4.90
2019-04-14T22:04:43.279Z,4.90
2019-04-14T22:09:44.815Z,5.20
2019-04-14T22:14:46.281Z,5.60
2019-04-14T22:19:48.259Z,5.70
2019-04-14T22:24:49.799Z,5.70
2019-04-14T22:29:51.296Z,5.60
2019-04-14T22:34:52.871Z,5.60
2019-04-14T22:39:54.435Z,5.70
2019-04-14T22:44:56.020Z,5.50
2019-04-14T22:49:57.502Z,5.50
2019-04-14T22:54:58.971Z,5.40
2019-04-14T23:00:00.431Z,5.30
2019-04-14T23:05:09.891Z,5.40
2019-04-14T23:10:13.399Z,5.20
2019-04-14T23:15:31.981Z,5.20
2019-04-14T23:20:35.347Z,5.30
2019-04-14T23:25:36.919Z,5.20
2019-04-14T23:30:38.395Z,5.10
2019-04-14T23:35:39.862Z,5.00
2019-04-14T23:40:41.729Z,5.10
2019-04-14T23:45:43.326Z,5.00
2019-04-14T23:50:44.896Z,5.00
2019-04-14T23:55:46.369Z,5.00
